createdAt,value
2019-04-14T00:02:25.033Z,36.90
2019-04-14T00:05:06.180Z,38.13
2019-04-14T00:07:42.683Z,39.35
2019-04-14T00:10:31.163Z,37.93
2019-04-14T00:13:06.798Z,38.58
2019-04-14T00:15:46.728Z,41.42
2019-04-14T00:18:25.058Z,41.75
2019-04-14T00:21:00.564Z,40.85
2019-04-14T00:23:36.973Z,42.20
2019-04-14T00:26:27.260Z,41.83
2019-04-14T00:29:04.625Z,43.30
2019-04-14T00:31:41.190Z,44.98
2019-04-14T00:34:35.342Z,45.15
2019-04-14T00:37:38.750Z,41.50
2019-04-14T00:40:23.547Z,43.23
2019-04-14T00:43:07.619Z,48.00
2019-04-14T00:45:53.570Z,45.05
2019-04-14T00:48:28.059Z,31.52
2019-04-14T00:51:03.438Z,43.68
2019-04-14T00:53:40.232Z,46.92
2019-04-14T00:56:15.633Z,46.63
2019-04-14T00:58:51.824Z,45.90
2019-04-14T01:01:27.165Z,45.63
2019-04-14T01:04:03.456Z,46.92
2019-04-14T01:06:38.808Z,47.78
2019-04-14T01:09:15.247Z,50.10
2019-04-14T01:11:50.968Z,48.55
2019-04-14T01:14:27.663Z,45.12
2019-04-14T01:17:03.088Z,49.85
2019-04-14T01:19:39.436Z,52.85
2019-04-14T01:22:14.798Z,47.58
2019-04-14T01:24:51.070Z,48.65
2019-04-14T01:27:27.666Z,50.43
2019-04-14T01:30:04.682Z,53.13
2019-04-14T01:32:40.092Z,49.67
2019-04-14T01:35:18.186Z,47.30
2019-04-14T01:37:55.000Z,51.08
2019-04-14T01:40:31.462Z,47.78
2019-04-14T01:43:08.012Z,49.65
2019-04-14T01:45:44.859Z,45.55
2019-04-14T01:48:21.399Z,51.75
2019-04-14T01:51:18.800Z,55.23
2019-04-14T01:54:23.430Z,51.58
2019-04-14T01:57:17.488Z,48.28
2019-04-14T01:59:52.930Z,50.03
2019-04-14T02:02:29.127Z,52.67
2019-04-14T02:05:05.968Z,50.15
2019-04-14T02:07:41.461Z,56.18
2019-04-14T02:10:17.272Z,53.38
2019-04-14T02:12:52.627Z,50.50
2019-04-14T02:15:28.699Z,53.08
2019-04-14T02:18:05.492Z,50.45
2019-04-14T02:20:42.451Z,52.62
2019-04-14T02:23:19.153Z,53.28
2019-04-14T02:25:55.770Z,50.90
2019-04-14T02:28:33.102Z,50.52
2019-04-14T02:31:24.571Z,51.28
2019-04-14T02:34:19.167Z,51.60
2019-04-14T02:36:58.722Z,52.98
2019-04-14T02:39:31.152Z,52.58
2019-04-14T02:42:27.752Z,50.43
2019-04-14T02:44:47.794Z,53.00
2019-04-14T02:49:59.145Z,50.67
2019-04-14T02:52:35.261Z,54.03
2019-04-14T02:57:44.829Z,56.83
2019-04-14T03:00:23.934Z,56.25
2019-04-14T03:02:56.414Z,56.28
2019-04-14T03:05:49.072Z,57.85
2019-04-14T03:08:22.278Z,59.30
2019-04-14T03:10:57.017Z,61.15
2019-04-14T03:13:45.069Z,59.10
2019-04-14T03:22:09.240Z,60.23
2019-04-14T03:24:37.391Z,58.58
2019-04-14T03:27:40.214Z,62.80
2019-04-14T03:30:39.523Z,63.13
2019-04-14T03:33:48.283Z,66.47
2019-04-14T03:38:14.617Z,65.70
2019-04-14T03:40:48.978Z,68.97
2019-04-14T03:46:07.290Z,69.72
2019-04-14T03:53:48.966Z,67.20
2019-04-14T03:56:36.377Z,66.02
2019-04-14T03:59:12.725Z,63.75
2019-04-14T04:01:48.501Z,71.67
2019-04-14T04:04:25.011Z,67.95
2019-04-14T04:07:01.745Z,68.87
2019-04-14T04:09:41.405Z,73.02
2019-04-14T04:12:18.169Z,68.33
2019-04-14T04:14:53.526Z,71.10
2019-04-14T04:17:42.942Z,75.65
2019-04-14T04:20:37.304Z,70.08
2019-04-14T04:23:38.190Z,69.47
2019-04-14T04:26:38.698Z,72.45
2019-04-14T04:29:30.959Z,70.00
2019-04-14T04:32:25.511Z,71.50
2019-04-14T04:37:56.353Z,70.10
2019-04-14T04:40:33.220Z,71.22
2019-04-14T04:43:08.638Z,70.20
2019-04-14T04:45:45.153Z,74.15
2019-04-14T04:48:21.673Z,74.80
2019-04-14T04:50:58.456Z,69.92
2019-04-14T04:53:33.894Z,71.90
2019-04-14T04:56:10.021Z,73.45
2019-04-14T04:58:45.654Z,76.10
2019-04-14T05:01:21.110Z,69.20
2019-04-14T05:03:56.526Z,74.00
2019-04-14T05:07:03.647Z,73.80
2019-04-14T05:09:58.047Z,69.95
2019-04-14T05:12:43.417Z,74.85
2019-04-14T05:15:40.848Z,77.15
2019-04-14T05:18:27.422Z,70.08
2019-04-14T05:21:03.851Z,73.83
2019-04-14T05:23:39.319Z,70.83
2019-04-14T05:26:15.566Z,71.12
2019-04-14T05:28:50.983Z,76.57
2019-04-14T05:31:27.844Z,73.55
2019-04-14T05:34:04.397Z,79.65
2019-04-14T05:36:39.719Z,79.95
2019-04-14T05:39:16.189Z,80.07
2019-04-14T05:42:00.493Z,72.22
2019-04-14T05:44:29.590Z,66.92
2019-04-14T05:47:06.430Z,72.58
2019-04-14T05:49:47.064Z,72.60
2019-04-14T05:52:19.190Z,69.27
2019-04-14T05:54:55.704Z,73.55
2019-04-14T05:57:32.635Z,73.35
2019-04-14T06:00:12.342Z,74.30
2019-04-14T06:02:48.521Z,72.30
2019-04-14T06:05:25.269Z,78.35
2019-04-14T06:08:00.727Z,80.50
2019-04-14T06:10:36.230Z,75.40
2019-04-14T06:13:11.907Z,78.62
2019-04-14T06:15:47.484Z,73.02
2019-04-14T06:18:22.880Z,86.60
2019-04-14T06:20:58.315Z,81.12
2019-04-14T06:23:33.850Z,81.53
2019-04-14T06:26:09.244Z,84.80
2019-04-14T06:28:44.630Z,82.82
2019-04-14T06:31:50.784Z,77.72
2019-04-14T06:34:31.267Z,84.45
2019-04-14T06:37:21.075Z,88.42
2019-04-14T06:39:56.513Z,82.67
2019-04-14T06:42:35.036Z,85.53
2019-04-14T06:45:10.814Z,83.97
2019-04-14T06:47:46.305Z,85.05
2019-04-14T06:50:21.669Z,89.87
2019-04-14T06:52:57.119Z,84.17
2019-04-14T06:55:32.473Z,89.67
2019-04-14T06:58:07.989Z,84.72
2019-04-14T07:00:43.387Z,88.05
2019-04-14T07:03:18.771Z,88.17
2019-04-14T07:05:54.139Z,92.30
2019-04-14T07:08:29.997Z,94.17
2019-04-14T07:11:05.389Z,90.53
2019-04-14T07:13:40.773Z,89.67
2019-04-14T07:16:16.161Z,89.20
2019-04-14T07:18:51.568Z,94.97
2019-04-14T07:21:26.923Z,90.77
2019-04-14T07:24:02.319Z,82.92
2019-04-14T07:26:37.813Z,86.90
2019-04-14T07:29:14.767Z,89.32
2019-04-14T07:32:09.184Z,94.30
2019-04-14T07:35:06.708Z,93.00
2019-04-14T07:38:19.437Z,95.25
2019-04-14T07:41:13.448Z,94.32
2019-04-14T07:43:59.064Z,89.70
2019-04-14T07:46:42.453Z,95.35
2019-04-14T07:49:36.750Z,90.42
2019-04-14T07:52:29.419Z,94.20
2019-04-14T07:55:24.062Z,92.92
2019-04-14T07:58:31.495Z,91.30
2019-04-14T08:01:15.960Z,92.90
2019-04-14T08:04:04.230Z,93.58
2019-04-14T08:06:39.637Z,89.67
2019-04-14T08:09:15.156Z,86.90
2019-04-14T08:11:50.516Z,89.07
2019-04-14T08:14:25.897Z,86.20
2019-04-14T08:17:01.344Z,83.52
2019-04-14T08:19:36.849Z,90.47
2019-04-14T08:22:12.215Z,87.95
2019-04-14T08:24:47.774Z,89.97
2019-04-14T08:27:23.224Z,89.62
2019-04-14T08:29:58.776Z,86.17
2019-04-14T08:32:34.126Z,92.60
2019-04-14T08:35:09.759Z,90.00
2019-04-14T08:37:45.115Z,89.10
2019-04-14T08:40:20.584Z,89.32
2019-04-14T08:43:13.079Z,91.40
2019-04-14T08:46:07.419Z,89.97
2019-04-14T08:49:10.805Z,92.02
2019-04-14T08:54:54.158Z,85.05
2019-04-14T08:57:57.554Z,89.92
2019-04-14T09:00:57.919Z,89.58
2019-04-14T09:03:50.920Z,84.28
2019-04-14T09:06:36.102Z,86.50
2019-04-14T09:09:36.494Z,83.52
2019-04-14T09:12:21.756Z,81.17
2019-04-14T09:14:57.778Z,77.30
2019-04-14T09:17:33.234Z,78.55
2019-04-14T09:20:08.741Z,75.05
2019-04-14T09:22:44.116Z,79.40
2019-04-14T09:25:19.794Z,74.90
2019-04-14T09:27:55.144Z,75.22
2019-04-14T09:30:30.597Z,70.75
2019-04-14T09:33:05.962Z,71.55
2019-04-14T09:35:41.336Z,71.55
2019-04-14T09:38:21.847Z,72.85
2019-04-14T09:40:57.244Z,69.12
2019-04-14T09:43:32.611Z,65.65
2019-04-14T09:46:08.154Z,64.70
2019-04-14T09:48:43.498Z,68.40
2019-04-14T09:51:19.013Z,65.12
2019-04-14T09:53:54.371Z,63.05
2019-04-14T09:56:29.751Z,63.02
2019-04-14T09:59:08.463Z,62.95
2019-04-14T10:01:43.931Z,65.03
2019-04-14T10:04:19.347Z,69.55
2019-04-14T10:06:54.765Z,62.45
2019-04-14T10:09:31.111Z,59.08
2019-04-14T10:12:06.657Z,63.13
2019-04-14T10:14:42.075Z,58.35
2019-04-14T10:17:17.477Z,59.35
2019-04-14T10:19:52.839Z,58.75
2019-04-14T10:22:34.278Z,55.38
2019-04-14T10:25:05.936Z,55.55
2019-04-14T10:27:41.328Z,56.42
2019-04-14T10:30:16.714Z,60.35
2019-04-14T10:32:53.128Z,57.23
2019-04-14T10:35:28.477Z,59.23
2019-04-14T10:38:03.845Z,59.48
2019-04-14T10:40:39.234Z,59.35
2019-04-14T10:43:14.630Z,60.88
2019-04-14T10:45:50.016Z,59.48
2019-04-14T10:48:25.550Z,56.05
2019-04-14T10:51:00.944Z,58.92
2019-04-14T10:53:36.446Z,61.55
2019-04-14T10:56:19.346Z,64.60
2019-04-14T10:58:54.782Z,59.30
2019-04-14T11:01:30.146Z,61.68
2019-04-14T11:04:07.992Z,58.73
2019-04-14T11:06:52.011Z,61.10
2019-04-14T11:09:27.585Z,62.73
2019-04-14T11:12:03.046Z,60.03
2019-04-14T11:14:38.452Z,57.65
2019-04-14T11:17:13.815Z,57.88
2019-04-14T11:19:49.237Z,57.05
2019-04-14T11:22:24.696Z,59.80
2019-04-14T11:25:00.130Z,60.17
2019-04-14T11:27:35.502Z,56.63
2019-04-14T11:30:13.149Z,54.70
2019-04-14T11:33:11.402Z,52.78
2019-04-14T11:36:11.793Z,58.78
2019-04-14T11:39:00.437Z,51.90
2019-04-14T11:41:37.825Z,51.95
2019-04-14T11:44:13.149Z,51.08
2019-04-14T11:46:48.548Z,51.95
2019-04-14T11:49:23.933Z,48.83
2019-04-14T11:51:59.338Z,46.55
2019-04-14T11:54:34.712Z,49.48
2019-04-14T11:57:10.124Z,48.92
2019-04-14T11:59:53.210Z,48.65
2019-04-14T12:02:59.555Z,46.05
2019-04-14T12:05:46.631Z,43.38
2019-04-14T12:08:55.998Z,43.45
2019-04-14T12:11:31.362Z,44.00
2019-04-14T12:14:06.764Z,42.78
2019-04-14T12:16:44.906Z,41.33
2019-04-14T12:19:20.354Z,41.13
2019-04-14T12:22:07.787Z,37.75
2019-04-14T12:24:32.750Z,42.55
2019-04-14T12:27:08.129Z,40.50
2019-04-14T12:29:43.710Z,38.17
2019-04-14T12:32:19.791Z,35.78
2019-04-14T12:34:55.200Z,40.10
2019-04-14T12:37:30.677Z,37.13
2019-04-14T12:40:07.391Z,39.80
2019-04-14T12:43:04.731Z,36.65
2019-04-14T12:45:59.072Z,38.02
2019-04-14T12:48:51.705Z,36.05
2019-04-14T12:51:31.067Z,33.28
2019-04-14T12:54:06.684Z,36.05
2019-04-14T12:56:43.544Z,36.35
2019-04-14T12:59:23.158Z,31.65
2019-04-14T13:02:13.209Z,31.15
2019-04-14T13:04:48.611Z,31.02
2019-04-14T13:07:24.014Z,33.60
2019-04-14T13:09:59.482Z,38.95
2019-04-14T13:12:34.894Z,31.35
2019-04-14T13:15:10.569Z,32.73
2019-04-14T13:17:45.989Z,33.80
2019-04-14T13:20:21.364Z,32.85
2019-04-14T13:22:56.820Z,33.92
2019-04-14T13:25:32.210Z,33.33
2019-04-14T13:28:07.652Z,29.72
2019-04-14T13:30:45.272Z,28.32
2019-04-14T13:33:20.682Z,31.65
2019-04-14T13:35:56.063Z,29.52
2019-04-14T13:38:31.456Z,31.42
2019-04-14T13:41:06.878Z,30.70
2019-04-14T13:43:43.229Z,29.50
2019-04-14T13:46:18.903Z,29.87
2019-04-14T13:48:55.367Z,30.20
2019-04-14T13:51:30.770Z,30.43
2019-04-14T13:54:06.232Z,29.12
2019-04-14T13:56:41.588Z,32.88
2019-04-14T13:59:20.137Z,31.00
2019-04-14T14:01:55.501Z,30.68
2019-04-14T14:04:30.810Z,30.62
2019-04-14T14:07:06.665Z,30.68
2019-04-14T14:09:42.053Z,31.55
2019-04-14T14:12:40.883Z,30.62
2019-04-14T14:15:33.743Z,33.75
2019-04-14T14:18:37.179Z,30.48
2019-04-14T14:21:37.535Z,29.98
2019-04-14T14:24:46.787Z,28.95
2019-04-14T14:27:22.185Z,25.62
2019-04-14T14:29:57.551Z,28.17
2019-04-14T14:32:35.192Z,28.23
2019-04-14T14:35:10.613Z,28.77
2019-04-14T14:37:46.146Z,27.13
2019-04-14T14:40:21.506Z,26.37
2019-04-14T14:42:57.042Z,27.58
2019-04-14T14:45:49.976Z,24.50
2019-04-14T14:48:31.927Z,27.22
2019-04-14T14:51:12.591Z,26.75
2019-04-14T14:53:48.004Z,24.80
2019-04-14T14:56:23.387Z,27.10
2019-04-14T14:58:58.912Z,27.07
2019-04-14T15:01:34.240Z,26.00
2019-04-14T15:04:10.444Z,24.37
2019-04-14T15:06:46.046Z,26.75
2019-04-14T15:09:22.417Z,27.45
2019-04-14T15:11:57.700Z,26.90
2019-04-14T15:14:33.280Z,27.62
2019-04-14T15:17:08.651Z,28.77
2019-04-14T15:19:44.010Z,25.48
2019-04-14T15:22:19.446Z,29.85
2019-04-14T15:24:54.841Z,27.67
2019-04-14T15:27:30.188Z,28.02
2019-04-14T15:30:07.333Z,29.55
2019-04-14T15:32:42.696Z,27.65
2019-04-14T15:35:18.075Z,27.90
2019-04-14T15:37:53.415Z,25.37
2019-04-14T15:40:28.869Z,25.95
2019-04-14T15:43:04.222Z,26.45
2019-04-14T15:45:39.649Z,27.40
2019-04-14T15:48:15.103Z,24.50
2019-04-14T15:50:50.505Z,26.68
2019-04-14T15:53:37.328Z,27.07
2019-04-14T15:56:03.054Z,26.12
2019-04-14T15:58:52.626Z,25.95
2019-04-14T16:01:53.317Z,27.42
2019-04-14T16:04:45.183Z,25.68
2019-04-14T16:07:38.212Z,26.97
2019-04-14T16:10:32.610Z,26.55
2019-04-14T16:13:14.494Z,26.55
2019-04-14T16:15:54.656Z,26.97
2019-04-14T16:19:11.395Z,26.17
2019-04-14T16:21:46.878Z,23.87
2019-04-14T16:24:22.305Z,24.15
2019-04-14T16:27:05.766Z,25.32
2019-04-14T16:30:01.544Z,25.90
2019-04-14T16:32:56.041Z,28.87
2019-04-14T16:35:31.477Z,26.07
2019-04-14T16:38:07.057Z,28.00
2019-04-14T16:40:42.412Z,26.37
2019-04-14T16:43:17.876Z,27.85
2019-04-14T16:45:53.606Z,26.65
2019-04-14T16:48:29.070Z,26.82
2019-04-14T16:51:05.151Z,25.92
2019-04-14T16:53:46.582Z,29.40
2019-04-14T16:56:52.694Z,27.58
2019-04-14T16:59:28.036Z,27.75
2019-04-14T17:02:10.764Z,26.75
2019-04-14T17:04:42.303Z,28.15
2019-04-14T17:07:17.713Z,31.82
2019-04-14T17:09:53.206Z,27.93
2019-04-14T17:12:28.631Z,28.75
2019-04-14T17:15:14.133Z,31.20
2019-04-14T17:18:07.428Z,31.97
2019-04-14T17:21:32.882Z,29.07
2019-04-14T17:24:30.510Z,32.20
2019-04-14T17:27:29.474Z,30.10
2019-04-14T17:30:28.111Z,36.48
2019-04-14T17:33:14.505Z,31.62
2019-04-14T17:36:08.992Z,31.20
2019-04-14T17:39:08.124Z,30.95
2019-04-14T17:42:16.242Z,35.15
2019-04-14T17:45:10.556Z,33.25
2019-04-14T17:48:04.889Z,33.73
2019-04-14T17:51:03.608Z,34.15
2019-04-14T17:54:04.053Z,30.40
2019-04-14T17:57:11.388Z,33.90
2019-04-14T18:00:14.574Z,34.25
2019-04-14T18:02:59.885Z,35.80
2019-04-14T18:05:42.017Z,34.20
2019-04-14T18:08:25.309Z,35.73
2019-04-14T18:11:19.655Z,34.48
2019-04-14T18:14:06.138Z,32.40
2019-04-14T18:17:06.044Z,35.55
2019-04-14T18:19:54.700Z,36.63
2019-04-14T18:22:30.052Z,32.67
2019-04-14T18:25:06.438Z,32.85
2019-04-14T18:28:06.654Z,33.18
2019-04-14T18:30:48.571Z,32.08
2019-04-14T18:33:44.781Z,32.25
2019-04-14T18:36:35.703Z,34.25
2019-04-14T18:39:28.383Z,35.95
2019-04-14T18:42:14.190Z,35.13
2019-04-14T18:44:59.727Z,33.70
2019-04-14T18:47:47.268Z,34.45
2019-04-14T18:50:40.571Z,35.58
2019-04-14T18:53:20.073Z,34.03
2019-04-14T18:56:17.418Z,34.23
2019-04-14T18:59:24.098Z,34.30
2019-04-14T19:01:59.619Z,36.30
2019-04-14T19:04:34.993Z,32.98
2019-04-14T19:07:10.440Z,34.78
2019-04-14T19:09:45.963Z,36.80
2019-04-14T19:12:44.422Z,36.35
2019-04-14T19:15:41.719Z,35.10
2019-04-14T19:18:25.680Z,37.38
2019-04-14T19:21:06.172Z,34.23
2019-04-14T19:23:42.160Z,34.90
2019-04-14T19:26:17.531Z,39.50
2019-04-14T19:28:52.940Z,35.43
2019-04-14T19:31:28.332Z,35.43
2019-04-14T19:34:04.335Z,37.08
2019-04-14T19:36:39.700Z,35.17
2019-04-14T19:39:15.191Z,33.78
2019-04-14T19:41:50.610Z,34.00
2019-04-14T19:44:26.166Z,33.95
2019-04-14T19:47:01.500Z,35.17
2019-04-14T19:49:36.954Z,34.43
2019-04-14T19:52:12.536Z,34.92
2019-04-14T19:54:48.326Z,37.78
2019-04-14T19:57:23.688Z,36.63
2019-04-14T19:59:59.085Z,35.63
2019-04-14T20:02:34.531Z,35.40
2019-04-14T20:05:10.016Z,32.48
2019-04-14T20:07:45.386Z,36.13
2019-04-14T20:10:20.914Z,37.53
2019-04-14T20:12:56.282Z,33.38
2019-04-14T20:15:50.643Z,34.73
2019-04-14T20:18:45.225Z,38.92
2019-04-14T20:21:51.855Z,35.85
2019-04-14T20:25:01.467Z,39.73
2019-04-14T20:28:04.528Z,36.23
2019-04-14T20:30:46.515Z,35.03
2019-04-14T20:33:21.934Z,33.23
2019-04-14T20:35:57.270Z,35.05
2019-04-14T20:38:34.241Z,33.33
2019-04-14T20:41:09.698Z,33.08
2019-04-14T20:43:45.224Z,34.18
2019-04-14T20:46:20.563Z,32.15
2019-04-14T20:48:56.013Z,33.02
2019-04-14T20:51:31.372Z,37.93
2019-04-14T20:54:06.714Z,33.98
2019-04-14T20:56:42.086Z,32.58
2019-04-14T20:59:21.587Z,30.15
2019-04-14T21:02:10.710Z,29.50
2019-04-14T21:05:11.021Z,29.67
2019-04-14T21:08:08.588Z,29.92
2019-04-14T21:10:50.448Z,31.52
2019-04-14T21:13:35.166Z,30.35
2019-04-14T21:16:15.643Z,27.40
2019-04-14T21:18:54.056Z,30.20
2019-04-14T21:21:42.742Z,29.87
2019-04-14T21:24:37.034Z,29.25
2019-04-14T21:27:29.035Z,30.88
2019-04-14T21:30:43.810Z,29.55
2019-04-14T21:33:38.140Z,27.02
2019-04-14T21:36:20.977Z,31.12
2019-04-14T21:39:13.965Z,31.50
2019-04-14T21:41:51.024Z,30.92
2019-04-14T21:44:26.463Z,28.20
2019-04-14T21:47:02.119Z,27.82
2019-04-14T21:49:37.541Z,31.17
2019-04-14T21:52:29.594Z,33.55
2019-04-14T21:55:05.331Z,31.75
2019-04-14T21:58:00.755Z,34.58
2019-04-14T22:01:40.074Z,32.00
2019-04-14T22:04:45.309Z,29.55
2019-04-14T22:07:42.423Z,32.10
2019-04-14T22:10:35.390Z,32.58
2019-04-14T22:13:10.764Z,31.20
2019-04-14T22:15:46.160Z,32.55
2019-04-14T22:18:21.547Z,35.28
2019-04-14T22:20:56.898Z,32.83
2019-04-14T22:23:32.229Z,31.52
2019-04-14T22:26:07.786Z,33.20
2019-04-14T22:28:43.251Z,34.73
2019-04-14T22:31:18.645Z,29.98
2019-04-14T22:33:54.013Z,31.23
2019-04-14T22:36:29.359Z,31.30
2019-04-14T22:39:07.808Z,30.80
2019-04-14T22:41:44.943Z,33.00
2019-04-14T22:44:20.340Z,31.12
2019-04-14T22:46:55.691Z,30.23
2019-04-14T22:49:31.166Z,31.52
2019-04-14T22:52:06.659Z,32.55
2019-04-14T22:54:42.026Z,33.63
2019-04-14T22:57:17.391Z,31.82
2019-04-14T22:59:52.814Z,31.45
2019-04-14T23:02:37.551Z,30.35
2019-04-14T23:05:30.817Z,34.33
2019-04-14T23:08:12.910Z,31.23
2019-04-14T23:11:05.627Z,33.45
2019-04-14T23:14:02.073Z,30.65
2019-04-14T23:17:06.295Z,33.67
2019-04-14T23:20:12.706Z,30.30
2019-04-14T23:23:07.013Z,31.80
2019-04-14T23:25:42.389Z,35.92
2019-04-14T23:28:17.775Z,32.03
2019-04-14T23:30:53.280Z,33.67
2019-04-14T23:33:28.613Z,35.58
2019-04-14T23:36:03.970Z,33.70
2019-04-14T23:38:39.476Z,31.07
2019-04-14T23:41:14.896Z,34.18
2019-04-14T23:43:50.286Z,33.13
2019-04-14T23:46:25.673Z,30.75
2019-04-14T23:49:01.071Z,30.35
2019-04-14T23:51:36.471Z,33.50
2019-04-14T23:54:11.874Z,34.98
2019-04-14T23:56:47.240Z,34.43
2019-04-14T23:59:22.627Z,33.75
